Terminal Aerodrome Forecast
Issued by NWS

Home | Current Version | Previous Version | Text Only | Print | Product List | Glossary On
Versions: 1 2 3 4 5 6 7 8 9 10 11 12 13 14 15 16 17 18 19 20
743
FTUS44 KCRP 290524
TAFALI
TAF
KALI 290524Z 2906/3006 07004KT P6SM SCT050
     FM291000 VRB03KT 6SM BR FEW012
      TEMPO 2911/2913 3SM BR
     FM291330 03010KT P6SM FEW250=

USA.gov is the U.S. government's official web portal to all federal, state and local government web resources and services.